Flat Rock, Ohio
Current Conditions -  °F | °C
As of 9:53 PM on Monday 20 Oct 2014 (Local Time) from KPCW Reporting Station
Overcast Overcast  
Wind Chill: 55°   Ceiling: 2700
Heat Index: 55°   Visibility: 9mi
Dew Point: 53°   Wind: 6mph
Humidity: 93%   Direction: 280°W
Pressure: 29.85"   Gusts: NA
Location:  41.24°N, 82.86°W
Report Text: KPCW 210153Z AUTO 28005KT 9SM FEW016 OVC027 13/12 A2985 RMK AO2 T01270116
Loading
Personal Weather Stations






























Interactive Weather Map
Tropical Storm Tracking
New forecast layout! Learn more

10-Day Weather Forecast

Advertisements
Track Severe Weather on mobile